createdAt,value
2018-04-25T00:00:34.356Z,99.90
2018-04-25T00:03:02.441Z,99.70
2018-04-25T00:05:30.546Z,99.90
2018-04-25T00:07:58.638Z,99.40
2018-04-25T00:10:27.503Z,99.60
2018-04-25T00:12:55.632Z,99.50
2018-04-25T00:15:24.514Z,99.90
2018-04-25T00:17:52.622Z,99.90
2018-04-25T00:20:21.489Z,99.90
2018-04-25T00:22:49.594Z,99.90
2018-04-25T00:25:18.463Z,99.90
2018-04-25T00:27:46.517Z,99.90
2018-04-25T00:30:14.636Z,99.90
2018-04-25T00:32:42.743Z,99.90
2018-04-25T00:35:10.884Z,99.70
2018-04-25T00:37:39.008Z,99.30
2018-04-25T00:40:07.112Z,99.30
2018-04-25T00:42:35.970Z,99.20
2018-04-25T00:45:04.070Z,99.20
2018-04-25T00:47:32.180Z,99.60
2018-04-25T00:50:01.062Z,99.50
2018-04-25T00:52:29.178Z,99.50
2018-04-25T00:54:58.047Z,99.60
2018-04-25T00:57:26.161Z,99.60
2018-04-25T00:59:55.045Z,99.40
2018-04-25T01:02:23.129Z,99.40
2018-04-25T03:03:53.095Z,99.00
2018-04-25T03:06:21.147Z,98.80
2018-04-25T03:08:49.279Z,98.50
2018-04-25T03:11:17.377Z,98.20
2018-04-25T03:13:45.474Z,98.40
2018-04-25T03:16:13.578Z,98.40
2018-04-25T03:18:41.663Z,98.60
2018-04-25T03:21:09.770Z,98.70
2018-04-25T03:23:38.627Z,99.10
2018-04-25T03:26:06.724Z,99.10
2018-04-25T03:28:34.821Z,98.90
2018-04-25T03:31:02.899Z,98.90
2018-04-25T03:33:31.036Z,99.00
2018-04-25T03:35:59.101Z,99.00
2018-04-25T03:38:27.968Z,99.10
2018-04-25T03:40:56.085Z,99.10
2018-04-25T03:43:24.939Z,99.00
2018-04-25T03:45:53.032Z,98.90
2018-04-25T03:48:21.097Z,98.70
2018-04-25T03:50:49.193Z,97.90
2018-04-25T03:53:17.290Z,96.50
2018-04-25T03:55:45.393Z,95.60
2018-04-25T03:58:13.512Z,95.60
2018-04-25T04:00:41.615Z,95.40
2018-04-25T04:03:09.725Z,95.00
2018-04-25T04:05:37.816Z,94.80
2018-04-25T04:08:05.919Z,94.60
2018-04-25T04:10:34.000Z,94.70
2018-04-25T04:13:02.129Z,94.80
2018-04-25T04:15:30.190Z,94.60
2018-04-25T04:17:59.062Z,94.60
2018-04-25T04:20:27.150Z,94.60
2018-04-25T04:22:55.256Z,95.10
2018-04-25T04:25:23.353Z,95.30
2018-04-25T04:27:52.216Z,95.70
2018-04-25T04:30:20.311Z,95.70
2018-04-25T04:32:50.026Z,96.20
2018-04-25T04:35:18.180Z,96.20
2018-04-25T04:37:46.264Z,96.00
2018-04-25T04:40:14.362Z,95.80
2018-04-25T04:42:42.442Z,95.70
2018-04-25T04:45:10.591Z,95.10
2018-04-25T04:47:39.476Z,94.30
2018-04-25T04:50:07.578Z,94.20
2018-04-25T04:52:36.463Z,93.10
2018-04-25T04:55:04.558Z,93.00
2018-04-25T04:57:33.451Z,92.20
2018-04-25T05:00:02.376Z,91.80
2018-04-25T05:02:30.468Z,91.80
2018-04-25T05:04:58.622Z,91.30
2018-04-25T05:07:26.734Z,90.70
2018-04-25T05:09:54.823Z,89.90
2018-04-25T05:12:22.911Z,87.90
2018-04-25T05:14:50.979Z,86.90
2018-04-25T05:17:19.880Z,87.10
2018-04-25T05:19:48.771Z,87.10
2018-04-25T05:22:16.879Z,86.90
2018-04-25T05:24:45.071Z,86.10
2018-04-25T05:27:13.079Z,85.30
2018-04-25T05:29:41.173Z,84.80
2018-04-25T05:32:09.300Z,84.80
2018-04-25T05:34:37.421Z,84.70
2018-04-25T05:37:05.520Z,83.80
2018-04-25T05:39:33.616Z,83.80
2018-04-25T05:42:01.727Z,82.60
2018-04-25T05:44:29.846Z,80.20
2018-04-25T05:46:58.701Z,79.80
2018-04-25T05:49:26.828Z,79.80
2018-04-25T05:51:55.678Z,78.60
2018-04-25T05:54:23.772Z,78.50
2018-04-25T05:56:51.976Z,77.60
2018-04-25T05:59:20.099Z,76.30
2018-04-25T06:01:48.226Z,74.80
2018-04-25T06:04:16.351Z,73.20
2018-04-25T06:06:45.253Z,71.40
2018-04-25T06:09:14.108Z,70.30
2018-04-25T06:11:42.205Z,70.10
2018-04-25T06:14:10.271Z,69.10
2018-04-25T06:16:38.417Z,67.20
2018-04-25T06:19:07.282Z,65.90
2018-04-25T06:21:35.401Z,65.80
2018-04-25T06:24:04.294Z,66.50
2018-04-25T06:26:33.259Z,65.30
2018-04-25T06:29:01.258Z,65.10
2018-04-25T06:31:29.387Z,63.90
2018-04-25T06:33:57.494Z,62.00
2018-04-25T06:36:25.574Z,62.00
2018-04-25T06:38:53.646Z,61.00
2018-04-25T06:41:21.754Z,59.70
2018-04-25T06:43:49.866Z,59.40
2018-04-25T06:46:18.098Z,58.90
2018-04-25T06:48:46.184Z,57.20
2018-04-25T06:51:14.259Z,57.90
2018-04-25T06:53:42.373Z,58.50
2018-04-25T06:56:10.461Z,58.10
2018-04-25T06:58:38.553Z,58.60
2018-04-25T07:01:06.736Z,58.60
2018-04-25T07:03:34.846Z,58.60
2018-04-25T07:06:02.945Z,58.20
2018-04-25T07:08:31.047Z,57.70
2018-04-25T07:10:59.899Z,55.80
2018-04-25T07:13:28.089Z,55.70
2018-04-25T07:15:56.873Z,56.80
2018-04-25T07:18:24.938Z,56.10
2018-04-25T07:20:53.024Z,56.40
2018-04-25T07:23:21.128Z,56.20
2018-04-25T07:25:49.224Z,55.20
2018-04-25T07:28:17.323Z,55.70
2018-04-25T07:30:45.387Z,54.20
2018-04-25T07:33:13.510Z,54.40
2018-04-25T07:35:41.588Z,54.10
2018-04-25T07:38:10.435Z,53.20
2018-04-25T07:40:38.499Z,53.20
2018-04-25T07:43:07.380Z,54.70
2018-04-25T07:45:35.447Z,54.60
2018-04-25T07:48:03.614Z,55.50
2018-04-25T07:50:31.688Z,53.40
2018-04-25T07:52:59.770Z,54.60
2018-04-25T07:55:27.871Z,54.90
2018-04-25T07:57:55.979Z,55.50
2018-04-25T08:00:24.105Z,55.50
2018-04-25T08:02:52.943Z,54.10
2018-04-25T08:05:21.053Z,54.10
2018-04-25T08:07:49.135Z,53.30
2018-04-25T08:10:17.984Z,52.60
2018-04-25T08:12:58.074Z,52.60
2018-04-25T08:15:37.927Z,51.20
2018-04-25T08:18:17.898Z,50.70
2018-04-25T08:23:46.611Z,50.90
2018-04-25T08:26:15.406Z,49.00
2018-04-25T08:28:43.456Z,49.00
2018-04-25T08:31:11.498Z,49.10
2018-04-25T08:33:39.637Z,46.70
2018-04-25T08:36:07.610Z,47.80
2018-04-25T08:38:35.658Z,47.00
2018-04-25T08:41:03.706Z,46.30
2018-04-25T08:43:31.750Z,47.10
2018-04-25T08:45:59.795Z,47.30
2018-04-25T08:48:27.829Z,46.80
2018-04-25T08:50:55.889Z,46.70
2018-04-25T08:53:23.931Z,47.50
2018-04-25T08:55:52.058Z,46.50
2018-04-25T08:58:20.081Z,46.10
2018-04-25T09:00:48.899Z,46.20
2018-04-25T09:03:17.693Z,45.20
2018-04-25T09:05:46.548Z,45.00
2018-04-25T09:08:14.550Z,45.60
2018-04-25T09:10:42.592Z,45.20
2018-04-25T09:13:10.637Z,47.10
2018-04-25T09:15:39.528Z,45.80
2018-04-25T09:18:08.238Z,47.00
2018-04-25T09:20:37.062Z,44.50
2018-04-25T09:23:05.861Z,45.30
2018-04-25T09:25:33.907Z,45.30
2018-04-25T09:28:01.946Z,44.30
2018-04-25T09:30:29.991Z,43.40
2018-04-25T09:32:58.809Z,42.80
2018-04-25T09:35:27.635Z,42.70
2018-04-25T09:37:55.671Z,42.60
2018-04-25T09:40:24.498Z,41.20
2018-04-25T09:42:52.540Z,41.10
2018-04-25T09:45:20.583Z,40.90
2018-04-25T09:47:48.640Z,39.60
2018-04-25T09:50:17.446Z,39.50
2018-04-25T09:52:45.487Z,39.50
2018-04-25T09:55:13.546Z,39.30
2018-04-25T09:57:41.593Z,40.30
2018-04-25T10:00:10.389Z,39.50
2018-04-25T10:02:39.202Z,39.30
2018-04-25T10:05:07.251Z,39.20
2018-04-25T10:07:35.301Z,38.60
2018-04-25T10:10:03.341Z,38.00
2018-04-25T10:12:32.145Z,36.20
2018-04-25T10:15:00.967Z,34.40
2018-04-25T10:17:29.014Z,34.40
2018-04-25T10:19:57.053Z,35.00
2018-04-25T10:22:25.109Z,35.70
2018-04-25T10:24:53.162Z,36.30
2018-04-25T10:27:21.217Z,36.30
2018-04-25T10:29:49.252Z,36.40
2018-04-25T10:32:18.066Z,36.40
2018-04-25T10:34:46.099Z,36.30
2018-04-25T10:37:14.145Z,37.80
2018-04-25T10:39:42.191Z,44.10
2018-04-25T10:42:11.017Z,47.10
2018-04-25T10:44:39.064Z,46.70
2018-04-25T10:47:07.146Z,47.50
2018-04-25T10:49:35.190Z,46.40
2018-04-25T10:52:03.239Z,47.00
2018-04-25T10:54:32.050Z,49.90
2018-04-25T10:57:00.103Z,49.80
2018-04-25T10:59:28.141Z,49.90
2018-04-25T11:01:56.199Z,49.60
2018-04-25T11:04:24.265Z,48.60
2018-04-25T11:06:52.297Z,48.60
2018-04-25T11:09:20.348Z,49.30
2018-04-25T11:11:48.391Z,48.30
2018-04-25T11:14:16.431Z,47.60
2018-04-25T11:16:44.474Z,48.60
2018-04-25T11:19:12.528Z,48.20
2018-04-25T11:21:40.573Z,47.90
2018-04-25T11:24:08.631Z,49.20
2018-04-25T11:26:36.735Z,49.40
2018-04-25T11:29:04.709Z,48.80
2018-04-25T11:31:33.511Z,48.40
2018-04-25T11:34:02.318Z,49.20
2018-04-25T11:36:30.354Z,49.20
2018-04-25T11:38:58.411Z,50.10
2018-04-25T11:41:26.453Z,50.80
2018-04-25T11:43:55.274Z,49.30
2018-04-25T11:46:23.323Z,49.30
2018-04-25T11:48:51.370Z,48.90
2018-04-25T11:51:19.405Z,48.80
2018-04-25T11:53:47.455Z,51.00
2018-04-25T11:56:15.494Z,49.50
2018-04-25T11:58:43.525Z,50.30
2018-04-25T12:01:11.591Z,50.10
2018-04-25T12:03:39.639Z,50.40
2018-04-25T12:06:07.679Z,50.30
2018-04-25T12:08:35.723Z,48.40
2018-04-25T12:11:03.759Z,46.90
2018-04-25T12:13:31.809Z,47.40
2018-04-25T12:15:59.858Z,45.90
2018-04-25T12:18:27.921Z,45.00
2018-04-25T12:20:56.729Z,44.90
2018-04-25T12:23:25.537Z,42.60
2018-04-25T12:25:53.582Z,42.60
2018-04-25T12:28:21.641Z,42.40
2018-04-25T12:30:49.684Z,42.30
2018-04-25T12:33:18.493Z,42.70
2018-04-25T12:35:46.584Z,42.60
2018-04-25T12:38:14.573Z,44.30
2018-04-25T12:40:42.620Z,44.90
2018-04-25T12:43:10.657Z,46.20
2018-04-25T12:45:38.697Z,47.00
2018-04-25T12:48:06.811Z,49.20
2018-04-25T12:50:34.854Z,50.00
2018-04-25T12:53:02.903Z,49.80
2018-04-25T12:55:30.941Z,50.80
2018-04-25T12:57:59.748Z,50.80
2018-04-25T13:00:27.801Z,50.70
2018-04-25T13:02:55.855Z,47.80
2018-04-25T13:05:23.898Z,46.80
2018-04-25T13:07:51.932Z,47.70
2018-04-25T13:10:19.978Z,48.70
2018-04-25T13:12:48.012Z,49.20
2018-04-25T13:15:16.054Z,49.00
2018-04-25T13:17:44.085Z,46.50
2018-04-25T13:20:12.132Z,47.10
2018-04-25T13:22:40.170Z,48.30
2018-04-25T13:25:08.978Z,52.30
2018-04-25T13:27:37.021Z,52.30
2018-04-25T13:30:05.071Z,54.40
2018-04-25T13:32:33.107Z,55.70
2018-04-25T13:35:01.152Z,55.30
2018-04-25T13:37:29.191Z,54.30
2018-04-25T13:39:58.033Z,56.50
2018-04-25T13:42:26.067Z,56.40
2018-04-25T13:44:54.880Z,56.20
2018-04-25T13:47:23.691Z,56.70
2018-04-25T13:49:51.732Z,56.70
2018-04-25T13:52:19.769Z,57.00
2018-04-25T13:54:47.807Z,57.10
2018-04-25T13:57:15.863Z,57.40
2018-04-25T13:59:43.902Z,58.20
2018-04-25T14:02:12.728Z,59.10
2018-04-25T14:04:40.761Z,59.00
2018-04-25T14:07:08.815Z,59.00
2018-04-25T14:09:36.863Z,58.60
2018-04-25T14:12:04.902Z,58.20
2018-04-25T14:14:32.947Z,58.10
2018-04-25T14:17:00.990Z,58.20
2018-04-25T14:19:29.802Z,58.30
2018-04-25T14:21:58.625Z,57.20
2018-04-25T14:24:26.662Z,57.10
2018-04-25T14:26:54.711Z,57.30
2018-04-25T14:29:22.752Z,57.30
2018-04-25T14:31:51.563Z,56.70
2018-04-25T14:34:20.359Z,56.80
2018-04-25T14:36:49.176Z,56.20
2018-04-25T14:39:17.219Z,56.10
2018-04-25T14:41:45.262Z,56.60
2018-04-25T14:44:13.296Z,55.60
2018-04-25T14:46:42.102Z,55.90
2018-04-25T14:49:10.906Z,56.50
2018-04-25T14:51:39.736Z,56.20
2018-04-25T14:54:07.767Z,56.20
2018-04-25T14:56:35.808Z,57.20
2018-04-25T14:59:03.857Z,57.60
2018-04-25T15:01:32.714Z,59.00
2018-04-25T15:04:01.503Z,59.70
2018-04-25T15:06:29.547Z,59.60
2018-04-25T15:08:58.491Z,59.30
2018-04-25T15:11:26.568Z,59.30
2018-04-25T15:13:54.632Z,59.20
2018-04-25T15:16:22.705Z,59.20
2018-04-25T15:18:50.802Z,59.90
2018-04-25T15:21:19.636Z,61.20
2018-04-25T15:23:47.705Z,61.00
2018-04-25T15:26:15.748Z,62.10
2018-04-25T15:28:44.559Z,63.90
2018-04-25T15:31:13.366Z,63.70
2018-04-25T15:33:41.413Z,63.60
2018-04-25T15:36:09.464Z,64.50
2018-04-25T15:38:37.508Z,65.10
2018-04-25T15:41:06.328Z,64.90
2018-04-25T15:43:34.372Z,64.80
2018-04-25T15:46:02.412Z,65.30
2018-04-25T15:48:30.467Z,66.10
2018-04-25T15:50:59.294Z,67.10
2018-04-25T15:53:27.350Z,67.30
2018-04-25T15:55:56.161Z,68.00
2018-04-25T15:58:24.218Z,68.00
2018-04-25T16:00:52.258Z,69.00
2018-04-25T16:03:20.316Z,69.70
2018-04-25T16:05:48.353Z,69.80
2018-04-25T16:08:16.404Z,70.40
2018-04-25T16:10:44.443Z,70.00
2018-04-25T16:13:13.251Z,70.70
2018-04-25T16:15:41.292Z,70.70
2018-04-25T16:18:09.342Z,71.90
2018-04-25T16:20:37.383Z,72.60
2018-04-25T16:23:05.419Z,72.10
2018-04-25T16:25:33.454Z,72.80
2018-04-25T16:28:01.503Z,73.60
2018-04-25T16:30:29.553Z,74.70
2018-04-25T16:32:57.583Z,74.50
2018-04-25T16:35:27.142Z,74.80
2018-04-25T16:37:55.950Z,75.40
2018-04-25T16:40:24.754Z,75.70
2018-04-25T16:42:52.794Z,75.60
2018-04-25T16:45:20.838Z,76.10
2018-04-25T16:47:48.887Z,76.30
2018-04-25T16:50:17.703Z,77.10
2018-04-25T16:52:45.734Z,77.00
2018-04-25T16:55:13.795Z,77.50
2018-04-25T16:57:41.881Z,78.10
2018-04-25T17:00:09.891Z,78.40
2018-04-25T17:02:37.928Z,78.60
2018-04-25T17:05:05.983Z,78.50
2018-04-25T17:07:34.022Z,78.60
2018-04-25T17:10:02.070Z,79.60
2018-04-25T17:12:30.867Z,78.90
2018-04-25T17:14:59.691Z,79.10
2018-04-25T17:17:28.533Z,79.60
2018-04-25T17:19:56.578Z,79.50
2018-04-25T17:22:24.618Z,79.90
2018-04-25T17:24:54.170Z,79.30
2018-04-25T17:27:22.215Z,79.30
2018-04-25T17:29:50.262Z,79.70
2018-04-25T17:32:18.300Z,79.20
2018-04-25T17:34:47.115Z,79.70
2018-04-25T17:37:15.918Z,79.80
2018-04-25T17:39:43.957Z,79.70
2018-04-25T17:42:11.999Z,79.60
2018-04-25T17:44:40.055Z,79.60
2018-04-25T17:47:08.083Z,78.60
2018-04-25T17:49:36.114Z,78.50
2018-04-25T17:52:04.151Z,78.80
2018-04-25T17:54:32.199Z,79.70
2018-04-25T17:57:00.270Z,80.40
2018-04-25T17:59:28.306Z,80.90
2018-04-25T18:01:56.375Z,81.20
2018-04-25T18:04:24.406Z,81.60
2018-04-25T18:06:53.232Z,82.70
2018-04-25T18:09:22.040Z,83.50
2018-04-25T18:11:50.847Z,83.60
2018-04-25T18:14:18.887Z,83.50
2018-04-25T18:16:46.935Z,84.30
2018-04-25T18:19:15.081Z,84.80
2018-04-25T18:21:43.909Z,85.30
2018-04-25T18:24:12.003Z,85.30
2018-04-25T18:26:40.039Z,85.80
2018-04-25T18:29:08.080Z,85.80
2018-04-25T18:31:36.119Z,86.30
2018-04-25T18:34:04.923Z,87.40
2018-04-25T18:36:33.734Z,88.00
2018-04-25T18:39:01.792Z,88.00
2018-04-25T18:41:29.839Z,88.30
2018-04-25T18:43:57.979Z,89.10
2018-04-25T18:46:25.948Z,90.00
2018-04-25T18:48:54.073Z,90.10
2018-04-25T18:51:22.138Z,90.10
2018-04-25T18:53:50.759Z,90.50
2018-04-25T18:56:18.837Z,90.60
2018-04-25T18:58:46.948Z,91.00
2018-04-25T19:01:15.386Z,91.10
2018-04-25T19:03:44.406Z,91.60
2018-04-25T19:06:13.241Z,91.80
2018-04-25T19:08:41.352Z,92.10
2018-04-25T19:11:09.572Z,91.30
2018-04-25T19:13:37.754Z,91.30
2018-04-25T19:16:05.912Z,91.20
2018-04-25T19:18:34.009Z,91.20
2018-04-25T19:21:02.215Z,91.20
2018-04-25T19:23:30.353Z,91.10
2018-04-25T19:25:58.681Z,90.80
2018-04-25T19:28:26.741Z,90.60
2018-04-25T19:30:54.812Z,90.50
2018-04-25T19:33:22.928Z,90.10
2018-04-25T19:35:51.024Z,89.70
2018-04-25T19:38:19.112Z,89.50
2018-04-25T19:40:47.972Z,89.40
2018-04-25T19:43:16.072Z,89.30
2018-04-25T19:45:44.164Z,88.50
2018-04-25T19:48:12.308Z,87.70
2018-04-25T19:50:40.492Z,87.10
2018-04-25T19:53:08.765Z,87.20
2018-04-25T19:55:36.851Z,86.40
2018-04-25T19:58:05.256Z,85.90
2018-04-25T20:00:33.339Z,85.40
2018-04-25T20:03:01.505Z,85.50
2018-04-25T20:05:29.580Z,85.40
2018-04-25T20:07:58.529Z,85.30
2018-04-25T20:10:26.600Z,85.20
2018-04-25T20:12:54.752Z,85.50
2018-04-25T20:15:23.613Z,86.10
2018-04-25T20:17:51.711Z,86.00
2018-04-25T20:20:19.810Z,86.20
2018-04-25T20:22:47.924Z,86.30
2018-04-25T20:25:16.048Z,86.70
2018-04-25T20:27:44.126Z,87.20
2018-04-25T20:30:12.212Z,87.50
2018-04-25T20:32:40.324Z,87.50
2018-04-25T20:35:08.478Z,87.80
2018-04-25T20:37:36.586Z,88.20
2018-04-25T20:40:04.687Z,88.30
2018-04-25T20:42:32.778Z,88.20
2018-04-25T20:45:00.864Z,88.30
2018-04-25T20:47:29.723Z,89.00
2018-04-25T20:49:57.871Z,89.00
2018-04-25T20:52:26.019Z,89.60
2018-04-25T20:54:54.129Z,90.00
2018-04-25T20:57:22.991Z,90.40
2018-04-25T20:59:51.097Z,90.40
2018-04-25T21:02:19.611Z,90.40
2018-04-25T21:04:47.760Z,90.60
2018-04-25T21:07:15.866Z,90.80
2018-04-25T21:09:43.974Z,90.80
2018-04-25T21:12:12.846Z,90.90
2018-04-25T21:14:40.975Z,90.90
2018-04-25T21:17:09.089Z,90.80
2018-04-25T21:19:37.174Z,90.80
2018-04-25T21:22:05.271Z,91.00
2018-04-25T21:24:33.393Z,91.00
2018-04-25T21:27:03.502Z,90.90
2018-04-25T21:29:32.228Z,90.80
2018-04-25T21:32:00.925Z,90.80
2018-04-25T21:34:29.421Z,90.80
2018-04-25T21:36:57.514Z,91.00
2018-04-25T21:39:26.353Z,90.80
2018-04-25T21:41:54.523Z,90.80
2018-04-25T21:44:22.625Z,90.80
2018-04-25T21:46:50.727Z,91.30
2018-04-25T21:49:18.789Z,91.00
2018-04-25T21:51:46.907Z,91.20
2018-04-25T21:54:14.987Z,91.20
2018-04-25T21:56:43.121Z,91.30
2018-04-25T21:59:11.226Z,91.30
2018-04-25T22:01:39.339Z,91.30
2018-04-25T22:04:07.504Z,91.90
2018-04-25T22:06:35.595Z,93.10
2018-04-25T22:09:03.697Z,94.60
2018-04-25T22:11:31.811Z,96.70
2018-04-25T22:14:00.679Z,99.80
2018-04-25T22:16:28.788Z,99.40
2018-04-25T22:18:56.875Z,99.90
2018-04-25T22:21:25.716Z,99.90
2018-04-25T22:23:53.836Z,99.90
2018-04-25T22:26:21.911Z,99.90
2018-04-25T22:28:50.144Z,99.90
2018-04-25T22:31:18.302Z,99.90
2018-04-25T22:33:46.362Z,99.90
2018-04-25T22:36:14.471Z,99.90
2018-04-25T22:38:42.555Z,99.90
2018-04-25T22:41:10.756Z,99.90
2018-04-25T22:43:38.961Z,99.90
2018-04-25T22:46:07.071Z,99.90
2018-04-25T22:48:35.165Z,99.90
2018-04-25T22:51:03.284Z,99.90
2018-04-25T22:53:31.369Z,99.90
2018-04-25T22:55:59.487Z,99.90
2018-04-25T22:58:27.676Z,99.90
2018-04-25T23:00:55.716Z,99.90
2018-04-25T23:03:23.808Z,99.90
2018-04-25T23:05:51.912Z,99.90
2018-04-25T23:08:20.029Z,99.90
2018-04-25T23:10:48.875Z,99.90
2018-04-25T23:13:17.755Z,99.90
2018-04-25T23:15:45.843Z,99.90
2018-04-25T23:18:13.967Z,99.90
2018-04-25T23:20:42.053Z,99.90
2018-04-25T23:23:10.150Z,99.90
2018-04-25T23:25:39.003Z,99.90
2018-04-25T23:28:07.140Z,99.90
2018-04-25T23:30:35.959Z,99.90
2018-04-25T23:33:04.164Z,99.90
2018-04-25T23:35:32.223Z,99.90
2018-04-25T23:38:00.326Z,99.90
2018-04-25T23:40:28.432Z,99.90
2018-04-25T23:42:56.512Z,99.90
2018-04-25T23:45:24.631Z,99.90
2018-04-25T23:47:52.786Z,99.90
2018-04-25T23:50:20.886Z,99.90
2018-04-25T23:52:49.000Z,99.90
2018-04-25T23:55:17.863Z,99.90
2018-04-25T23:57:45.951Z,99.90
